Time;durP1;ratioP1;P1;durP2;ratioP2;P2;SDS_P1;SDS_P2;PMS_P1;PMS_P2;Temp;Humidity;BMP_temperature;BMP_pressure;BME280_temperature;BME280_humidity;BME280_pressure;Samples;Min_cycle;Max_cycle;Signal;HPM_P1;HPM_P2
2022/12/30 00:01:23;;;;;;;9.07;8.03;;;8.20;99.90;;;;;;5053242;28;20187;-59
2022/12/30 00:03:48;;;;;;;8.50;7.60;;;8.20;99.90;;;;;;5052408;28;20183;-59
2022/12/30 00:06:17;;;;;;;9.67;7.50;;;8.20;99.90;;;;;;5051861;28;20268;-59
2022/12/30 00:08:47;;;;;;;7.73;6.63;;;8.20;99.90;;;;;;5053857;28;20182;-56
2022/12/30 00:11:22;;;;;;;7.30;5.97;;;8.20;99.90;;;;;;5052533;28;20187;-57
2022/12/30 00:33:45;;;;;;;6.60;5.33;;;8.60;99.90;;;;;;5031667;28;20183;-59
2022/12/30 00:36:11;;;;;;;7.23;5.53;;;8.70;99.90;;;;;;5031402;28;20213;-56
2022/12/30 00:38:36;;;;;;;6.13;5.13;;;8.70;99.90;;;;;;5031513;28;20176;-53
2022/12/30 00:43:46;;;;;;;7.00;5.40;;;8.70;99.90;;;;;;5032821;28;20229;-54
2022/12/30 00:46:11;;;;;;;7.80;5.87;;;8.80;99.90;;;;;;5032914;28;20200;-57
2022/12/30 00:56:49;;;;;;;6.57;5.20;;;8.70;99.90;;;;;;5032495;28;20210;-55
2022/12/30 00:59:15;;;;;;;7.17;5.60;;;8.70;99.90;;;;;;5032709;28;20207;-55
2022/12/30 01:01:41;;;;;;;6.10;5.23;;;8.70;99.90;;;;;;5031628;28;20563;-56
2022/12/30 01:04:06;;;;;;;8.80;5.93;;;8.70;99.90;;;;;;5031527;28;20207;-56
2022/12/30 01:06:32;;;;;;;8.73;6.23;;;8.70;99.90;;;;;;5032326;28;20231;-57
2022/12/30 01:08:58;;;;;;;7.73;5.37;;;8.70;99.90;;;;;;5032489;28;20615;-58
2022/12/30 01:11:23;;;;;;;7.50;5.93;;;8.70;99.90;;;;;;5032176;28;20192;-60
2022/12/30 01:13:49;;;;;;;6.27;5.50;;;8.70;99.90;;;;;;5031203;28;20180;-58
2022/12/30 01:16:16;;;;;;;5.87;5.27;;;8.70;99.90;;;;;;5032593;28;20172;-56
2022/12/30 01:18:42;;;;;;;7.90;5.73;;;8.70;99.90;;;;;;5032029;28;20251;-58
2022/12/30 01:21:08;;;;;;;8.43;5.90;;;8.80;99.90;;;;;;5032262;28;20362;-54
2022/12/30 01:23:34;;;;;;;7.00;5.63;;;8.80;99.90;;;;;;5031849;28;20165;-59
2022/12/30 01:26:01;;;;;;;7.20;5.70;;;8.80;99.90;;;;;;5031526;28;20191;-58
2022/12/30 01:28:35;;;;;;;7.10;5.37;;;8.90;99.90;;;;;;5032044;28;20310;-57
2022/12/30 01:31:04;;;;;;;6.30;5.37;;;8.90;99.90;;;;;;5032315;28;20192;-59
2022/12/30 01:33:30;;;;;;;6.20;5.27;;;8.90;99.90;;;;;;5030318;28;20179;-60
2022/12/30 01:35:55;;;;;;;6.80;5.93;;;8.90;99.90;;;;;;5031862;28;20180;-58
2022/12/30 01:38:21;;;;;;;7.57;5.53;;;8.90;99.90;;;;;;5032272;28;20243;-59
2022/12/30 01:40:46;;;;;;;6.80;5.67;;;8.90;99.90;;;;;;5031173;28;20168;-57
2022/12/30 01:43:14;;;;;;;6.47;5.47;;;8.90;99.90;;;;;;5031955;28;20230;-54
2022/12/30 01:45:42;;;;;;;6.63;5.40;;;8.90;99.90;;;;;;5031213;28;20242;-60
2022/12/30 01:48:20;;;;;;;7.03;5.57;;;8.90;99.90;;;;;;5032056;28;20168;-58
2022/12/30 01:51:00;;;;;;;6.53;5.73;;;9.00;99.90;;;;;;5031520;28;20179;-58
2022/12/30 01:53:29;;;;;;;7.17;5.63;;;8.90;99.90;;;;;;5031774;28;20168;-56
2022/12/30 01:55:57;;;;;;;8.80;6.67;;;8.90;99.90;;;;;;5031442;28;20164;-57
2022/12/30 01:58:41;;;;;;;8.13;6.57;;;8.90;99.90;;;;;;5031604;28;20180;-57
2022/12/30 02:01:07;;;;;;;7.17;5.93;;;8.90;99.90;;;;;;5031538;28;20198;-59
2022/12/30 02:03:44;;;;;;;6.87;6.10;;;8.90;99.90;;;;;;5035025;28;20184;-57
2022/12/30 02:06:16;;;;;;;7.03;6.33;;;8.90;99.90;;;;;;5031570;28;20730;-54
2022/12/30 02:08:41;;;;;;;7.40;6.20;;;8.80;99.90;;;;;;5030960;28;20172;-56
2022/12/30 02:11:07;;;;;;;9.80;6.50;;;8.80;99.90;;;;;;5030642;28;20603;-58
2022/12/30 02:13:33;;;;;;;6.80;6.00;;;8.80;99.90;;;;;;5030406;28;20184;-58
2022/12/30 02:16:42;;;;;;;6.93;5.33;;;8.70;99.90;;;;;;5031325;28;20191;-54
2022/12/30 02:19:42;;;;;;;8.60;5.57;;;8.70;99.90;;;;;;5002559;28;20676;-56
2022/12/30 02:22:22;;;;;;;6.10;5.33;;;8.60;99.90;;;;;;5031233;28;20207;-57
2022/12/30 02:25:15;;;;;;;8.33;5.33;;;8.50;99.90;;;;;;5029862;28;20233;-57
2022/12/30 02:27:54;;;;;;;7.87;6.40;;;8.60;99.90;;;;;;5031490;28;20168;-58
2022/12/30 02:30:35;;;;;;;7.00;5.70;;;8.60;99.90;;;;;;5031073;28;20240;-56
2022/12/30 02:33:26;;;;;;;7.77;6.03;;;8.50;99.90;;;;;;5031098;28;20272;-57
2022/12/30 02:36:17;;;;;;;7.13;5.87;;;8.50;99.90;;;;;;5030638;28;20178;-55
2022/12/30 02:38:53;;;;;;;7.77;6.57;;;8.50;99.90;;;;;;5031163;28;20175;-55
2022/12/30 02:44:38;;;;;;;7.37;5.73;;;8.40;99.90;;;;;;5031155;28;20222;-56
2022/12/30 02:47:16;;;;;;;7.20;6.20;;;8.40;99.90;;;;;;5030970;28;20211;-56
2022/12/30 02:52:13;;;;;;;6.97;6.20;;;8.40;99.90;;;;;;5031170;28;20305;-53
2022/12/30 02:52:32;;;;;;;8.00;5.80;;;8.40;99.90;;;;;;5030663;28;20199;-58
2022/12/30 02:54:57;;;;;;;6.57;5.77;;;8.40;99.90;;;;;;5030737;28;20175;-57
2022/12/30 02:57:27;;;;;;;6.57;5.87;;;8.40;99.90;;;;;;5030618;28;20268;-59
2022/12/30 03:06:23;;;;;;;6.53;5.57;;;8.30;99.90;;;;;;5030837;28;20206;-56
2022/12/30 03:08:59;;;;;;;9.13;6.50;;;8.30;99.90;;;;;;5030475;28;20247;-58
2022/12/30 03:11:32;;;;;;;8.07;5.90;;;8.20;99.90;;;;;;5030275;28;20715;-59
2022/12/30 03:14:15;;;;;;;8.73;6.13;;;8.10;99.90;;;;;;5030385;28;20229;-59
2022/12/30 03:16:45;;;;;;;8.33;6.30;;;8.10;99.90;;;;;;5030996;28;20171;-56
2022/12/30 03:19:17;;;;;;;8.47;6.43;;;8.00;99.90;;;;;;5030801;28;20652;-58
2022/12/30 03:21:45;;;;;;;7.63;6.63;;;7.80;99.90;;;;;;5030621;28;20204;-59
2022/12/30 03:27:05;;;;;;;6.83;5.70;;;7.70;99.90;;;;;;5032293;28;20342;-55
2022/12/30 03:29:49;;;;;;;7.33;5.90;;;7.60;99.90;;;;;;5034587;28;20251;-59
2022/12/30 03:32:17;;;;;;;6.30;5.70;;;7.50;99.90;;;;;;5034389;28;20278;-56
2022/12/30 03:34:43;;;;;;;6.43;5.70;;;7.40;99.90;;;;;;5034249;28;20175;-55
2022/12/30 03:37:25;;;;;;;8.30;6.00;;;7.40;99.90;;;;;;5034034;28;20665;-57
2022/12/30 03:40:12;;;;;;;7.13;6.40;;;7.40;99.90;;;;;;5034239;28;20305;-54
2022/12/30 03:42:38;;;;;;;6.87;6.13;;;7.40;99.90;;;;;;5033907;28;20194;-56
2022/12/30 03:45:05;;;;;;;7.90;6.17;;;7.40;99.90;;;;;;5034062;28;20175;-57
2022/12/30 03:47:30;;;;;;;7.07;5.53;;;7.50;99.90;;;;;;5033714;28;20191;-57
2022/12/30 03:49:56;;;;;;;6.73;5.73;;;7.60;99.90;;;;;;5035447;28;20189;-57
2022/12/30 03:52:21;;;;;;;8.33;5.97;;;8.90;99.90;;;;;;5033834;28;20649;-60
2022/12/30 03:54:48;;;;;;;7.37;5.87;;;7.50;99.90;;;;;;5033510;28;20717;-57
2022/12/30 03:57:15;;;;;;;6.77;5.37;;;7.40;99.90;;;;;;5033900;28;20172;-58
2022/12/30 03:59:41;;;;;;;6.07;5.00;;;7.50;99.90;;;;;;5034119;28;20545;-59
2022/12/30 04:02:07;;;;;;;5.87;4.87;;;7.50;99.90;;;;;;5034101;28;20195;-56
2022/12/30 04:04:33;;;;;;;6.17;5.33;;;7.60;99.90;;;;;;5033275;28;20761;-59
2022/12/30 04:06:59;;;;;;;7.43;6.07;;;7.70;99.90;;;;;;5033948;28;20278;-60
2022/12/30 04:09:24;;;;;;;7.00;5.83;;;7.70;99.90;;;;;;5033321;28;20255;-59
2022/12/30 04:11:50;;;;;;;7.27;5.70;;;7.70;99.90;;;;;;5033797;28;20260;-57
2022/12/30 04:14:15;;;;;;;6.83;5.93;;;7.70;99.90;;;;;;5032898;28;20179;-58
2022/12/30 04:16:41;;;;;;;6.33;5.63;;;7.80;99.90;;;;;;5033789;28;20168;-61
2022/12/30 04:19:07;;;;;;;9.07;6.00;;;7.80;99.90;;;;;;5033887;28;20203;-57
2022/12/30 04:21:32;;;;;;;8.80;6.67;;;7.90;99.90;;;;;;5040318;28;20219;-57
2022/12/30 04:23:58;;;;;;;7.20;6.37;;;8.00;99.90;;;;;;5032807;28;20605;-59
2022/12/30 04:26:23;;;;;;;7.93;6.27;;;8.00;99.90;;;;;;5032499;28;20210;-57
2022/12/30 04:28:49;;;;;;;6.57;5.90;;;8.00;99.90;;;;;;5032613;28;20195;-58
2022/12/30 04:31:15;;;;;;;6.63;5.93;;;8.00;99.90;;;;;;5033038;28;20188;-60
2022/12/30 04:33:40;;;;;;;6.60;5.77;;;8.10;99.90;;;;;;5033079;28;20175;-60
2022/12/30 04:36:06;;;;;;;5.70;5.00;;;8.10;99.90;;;;;;5033262;28;20179;-57
2022/12/30 04:38:33;;;;;;;6.13;5.43;;;8.20;99.90;;;;;;5031878;28;20241;-57
2022/12/30 04:40:59;;;;;;;4.60;3.90;;;8.30;99.90;;;;;;5033108;28;20180;-58
2022/12/30 04:43:25;;;;;;;4.70;4.17;;;8.30;99.90;;;;;;5032814;28;20241;-59
2022/12/30 04:45:50;;;;;;;4.60;4.20;;;8.30;99.90;;;;;;5032874;28;20200;-56
2022/12/30 04:48:16;;;;;;;4.90;4.40;;;8.20;99.90;;;;;;5032823;28;20168;-55
2022/12/30 04:50:43;;;;;;;5.23;4.73;;;8.10;99.90;;;;;;5033092;28;20171;-58
2022/12/30 04:53:09;;;;;;;6.77;5.87;;;8.10;99.90;;;;;;5032457;28;20328;-58
2022/12/30 04:55:35;;;;;;;8.50;7.00;;;8.00;99.90;;;;;;5032633;28;20629;-58
2022/12/30 04:58:00;;;;;;;8.90;7.00;;;7.90;99.90;;;;;;5032815;28;20225;-59
2022/12/30 05:00:26;;;;;;;7.50;6.63;;;8.10;99.90;;;;;;5032495;28;20188;-60
2022/12/30 05:02:52;;;;;;;7.90;6.33;;;8.20;99.90;;;;;;5032790;28;20199;-56
2022/12/30 05:05:17;;;;;;;6.90;5.90;;;8.30;99.90;;;;;;5032130;28;20616;-56
2022/12/30 05:07:43;;;;;;;6.77;5.87;;;8.40;99.90;;;;;;5032801;28;20606;-58
2022/12/30 05:10:08;;;;;;;6.73;5.77;;;8.50;99.90;;;;;;5032229;28;20184;-58
2022/12/30 05:12:34;;;;;;;7.37;6.67;;;8.60;99.90;;;;;;5031391;28;20202;-58
2022/12/30 05:15:00;;;;;;;7.50;6.40;;;8.60;99.90;;;;;;5031922;28;20601;-58
2022/12/30 05:17:26;;;;;;;6.70;6.00;;;8.60;99.90;;;;;;5032670;28;20266;-56
2022/12/30 05:19:51;;;;;;;7.80;6.30;;;8.60;99.90;;;;;;5032623;28;20215;-58
2022/12/30 05:22:17;;;;;;;7.73;6.27;;;8.60;99.90;;;;;;5032030;28;20215;-59
2022/12/30 05:27:26;;;;;;;7.33;6.40;;;8.70;99.90;;;;;;5032135;28;20683;-59
2022/12/30 05:29:52;;;;;;;7.57;6.10;;;8.70;99.90;;;;;;5032352;28;20176;-60
2022/12/30 05:32:18;;;;;;;6.23;5.63;;;8.60;99.90;;;;;;5031893;28;20635;-59
2022/12/30 05:34:43;;;;;;;6.60;5.87;;;8.60;99.90;;;;;;5031751;28;20176;-58
2022/12/30 05:37:09;;;;;;;6.87;6.17;;;8.50;99.90;;;;;;5031826;28;20241;-59
2022/12/30 05:39:34;;;;;;;8.20;6.43;;;8.50;99.90;;;;;;5032004;28;20226;-59
2022/12/30 05:42:00;;;;;;;7.47;6.67;;;8.50;99.90;;;;;;5032055;28;20607;-58
2022/12/30 05:44:25;;;;;;;7.67;6.80;;;8.50;99.90;;;;;;5031386;28;20184;-59
2022/12/30 05:46:51;;;;;;;12.80;10.70;;;8.50;99.90;;;;;;5032011;28;20293;-60
2022/12/30 05:49:17;;;;;;;7.33;6.57;;;8.50;99.90;;;;;;5031678;28;20184;-56
2022/12/30 05:51:43;;;;;;;7.10;5.90;;;8.50;99.90;;;;;;5031884;28;20277;-59
2022/12/30 05:54:08;;;;;;;7.47;5.50;;;10.00;99.90;;;;;;5029697;28;20191;-59
2022/12/30 05:56:34;;;;;;;6.53;5.70;;;8.40;99.90;;;;;;5031843;28;20258;-59
2022/12/30 05:59:00;;;;;;;5.87;5.13;;;8.40;99.90;;;;;;5031687;28;20235;-59
2022/12/30 06:01:25;;;;;;;5.20;4.70;;;8.40;99.90;;;;;;5031573;28;20663;-56
2022/12/30 06:03:55;;;;;;;5.10;4.30;;;8.50;99.90;;;;;;5031511;28;20175;-59
2022/12/30 06:06:20;;;;;;;5.30;4.80;;;8.50;99.90;;;;;;5031326;28;20294;-60
2022/12/30 06:08:46;;;;;;;5.40;4.57;;;8.60;99.90;;;;;;5031539;28;20279;-57
2022/12/30 06:11:11;;;;;;;5.40;4.83;;;8.70;99.90;;;;;;5030770;28;20561;-59
2022/12/30 06:13:37;;;;;;;7.50;4.40;;;8.70;99.90;;;;;;5031441;28;20203;-57
2022/12/30 06:16:03;;;;;;;6.20;4.90;;;8.80;99.90;;;;;;5034931;28;20236;-58
2022/12/30 06:18:28;;;;;;;6.17;4.60;;;8.80;99.90;;;;;;5039073;28;20183;-57
2022/12/30 06:20:55;;;;;;;6.40;4.70;;;8.90;99.90;;;;;;5030861;28;20180;-56
2022/12/30 06:23:20;;;;;;;7.07;5.40;;;8.90;99.90;;;;;;5044622;28;20186;-58
2022/12/30 06:25:51;;;;;;;6.23;4.80;;;8.90;99.90;;;;;;5036984;28;20215;-56
2022/12/30 06:28:16;;;;;;;7.20;5.00;;;8.90;99.90;;;;;;5049882;28;20671;-55
2022/12/30 06:30:42;;;;;;;6.50;5.40;;;8.80;99.90;;;;;;5037395;28;20179;-54
2022/12/30 06:33:08;;;;;;;7.33;5.90;;;8.80;99.90;;;;;;5030369;28;20176;-56
2022/12/30 06:35:33;;;;;;;6.97;5.67;;;8.80;99.90;;;;;;5031636;28;20252;-55
2022/12/30 06:37:59;;;;;;;6.83;6.13;;;8.80;99.90;;;;;;5050604;28;20179;-57
2022/12/30 06:40:24;;;;;;;7.57;6.73;;;8.90;99.90;;;;;;5049843;28;20183;-55
2022/12/30 06:42:50;;;;;;;7.10;6.13;;;8.90;99.90;;;;;;5048476;28;20688;-58
2022/12/30 06:45:15;;;;;;;5.93;5.33;;;8.80;99.90;;;;;;5048428;28;20183;-58
2022/12/30 06:47:41;;;;;;;6.83;5.77;;;8.90;99.90;;;;;;5050463;28;20221;-57
2022/12/30 06:50:07;;;;;;;6.70;5.70;;;8.90;99.90;;;;;;5051011;28;20167;-56
2022/12/30 06:52:33;;;;;;;7.57;5.77;;;8.90;99.90;;;;;;5050029;28;20191;-57
2022/12/30 06:54:58;;;;;;;5.63;5.00;;;8.90;99.90;;;;;;5050470;28;20521;-59
2022/12/30 06:57:24;;;;;;;5.43;4.87;;;8.90;99.90;;;;;;5042124;28;20217;-54
2022/12/30 06:59:49;;;;;;;11.77;10.27;;;8.90;99.90;;;;;;5048646;28;20551;-58
2022/12/30 07:02:15;;;;;;;7.90;7.10;;;8.90;99.90;;;;;;5052530;28;20210;-57
2022/12/30 07:04:41;;;;;;;9.37;7.93;;;8.80;99.90;;;;;;5053016;28;20564;-55
2022/12/30 07:07:06;;;;;;;8.73;7.40;;;10.00;99.90;;;;;;5054726;28;20281;-54
2022/12/30 07:09:32;;;;;;;8.97;7.80;;;8.70;99.90;;;;;;5053517;28;20567;-57
2022/12/30 07:11:57;;;;;;;9.97;8.97;;;8.70;99.90;;;;;;5053114;28;20218;-57
2022/12/30 07:14:23;;;;;;;11.20;10.03;;;8.70;99.90;;;;;;5053711;28;20226;-59
2022/12/30 07:16:48;;;;;;;15.70;14.07;;;8.70;99.90;;;;;;5054421;28;20183;-58
2022/12/30 07:19:14;;;;;;;8.20;6.87;;;8.70;99.90;;;;;;5053458;28;20278;-57
2022/12/30 07:21:40;;;;;;;7.93;6.60;;;9.20;99.90;;;;;;5051363;28;20629;-57
2022/12/30 07:24:06;;;;;;;7.30;6.60;;;8.40;99.90;;;;;;5053456;28;20179;-59
2022/12/30 07:26:32;;;;;;;7.47;6.60;;;8.40;99.90;;;;;;5051702;28;20191;-58
2022/12/30 07:28:57;;;;;;;7.90;6.93;;;8.40;99.90;;;;;;5051580;28;20544;-58
2022/12/30 07:31:23;;;;;;;10.43;9.33;;;8.40;99.90;;;;;;5051455;28;20187;-55
2022/12/30 07:33:48;;;;;;;8.63;7.70;;;8.50;99.90;;;;;;5052027;28;20171;-58
2022/12/30 07:36:14;;;;;;;9.43;6.17;;;8.50;99.90;;;;;;5052896;28;20178;-60
2022/12/30 07:38:40;;;;;;;8.57;6.80;;;8.50;99.90;;;;;;5052944;28;20652;-57
2022/12/30 07:41:06;;;;;;;8.70;7.80;;;8.50;99.90;;;;;;5052098;28;20195;-56
2022/12/30 07:43:32;;;;;;;8.63;7.70;;;8.50;99.90;;;;;;5051028;28;20682;-57
2022/12/30 07:45:58;;;;;;;6.90;5.90;;;8.60;99.90;;;;;;5052461;28;20202;-55
2022/12/30 07:48:24;;;;;;;7.97;6.27;;;8.60;99.90;;;;;;5054114;28;20183;-56
2022/12/30 07:50:49;;;;;;;6.77;6.07;;;8.70;99.90;;;;;;5050680;28;20178;-55
2022/12/30 07:53:15;;;;;;;6.43;5.73;;;8.80;99.90;;;;;;5053538;28;20390;-52
2022/12/30 07:55:40;;;;;;;6.97;5.50;;;8.90;99.90;;;;;;5049201;28;20195;-54
2022/12/30 07:58:06;;;;;;;6.63;5.70;;;9.00;99.90;;;;;;5054047;28;20233;-57
2022/12/30 08:00:32;;;;;;;7.10;5.50;;;9.10;99.90;;;;;;5053569;28;20199;-58
2022/12/30 08:02:58;;;;;;;7.30;5.37;;;9.20;99.90;;;;;;5053263;28;20249;-55
2022/12/30 08:05:24;;;;;;;6.07;5.17;;;9.30;99.90;;;;;;5053233;28;20159;-60
2022/12/30 08:07:53;;;;;;;7.83;5.53;;;9.30;99.90;;;;;;5053334;28;20171;-58
2022/12/30 08:10:19;;;;;;;6.40;4.87;;;9.40;99.90;;;;;;5053212;28;20168;-55
2022/12/30 08:12:45;;;;;;;6.60;5.30;;;9.40;99.90;;;;;;5052782;28;20614;-57
2022/12/30 08:15:11;;;;;;;7.10;5.33;;;9.60;99.90;;;;;;5053597;28;20248;-58
2022/12/30 08:17:36;;;;;;;7.07;4.80;;;9.50;99.90;;;;;;5053454;28;20640;-58
2022/12/30 08:20:03;;;;;;;7.07;5.17;;;9.50;99.90;;;;;;5053389;28;20175;-56
2022/12/30 08:22:29;;;;;;;5.50;4.90;;;9.40;99.90;;;;;;5035645;28;20313;-55
2022/12/30 08:24:55;;;;;;;7.13;5.37;;;9.40;99.90;;;;;;5051782;28;20254;-58
2022/12/30 08:27:20;;;;;;;6.33;5.33;;;9.50;99.90;;;;;;5053213;28;20244;-55
2022/12/30 08:29:46;;;;;;;5.60;5.03;;;9.50;99.90;;;;;;5052900;28;20240;-58
2022/12/30 08:32:12;;;;;;;5.27;4.77;;;9.60;99.90;;;;;;5034706;28;20203;-60
2022/12/30 08:34:39;;;;;;;5.97;5.37;;;9.70;99.90;;;;;;5032362;28;20199;-59
2022/12/30 08:37:04;;;;;;;5.20;4.70;;;9.90;99.90;;;;;;5032637;28;20179;-60
2022/12/30 08:39:30;;;;;;;4.77;4.30;;;9.90;99.90;;;;;;5032551;28;20518;-60
2022/12/30 08:41:55;;;;;;;4.90;4.40;;;10.30;99.90;;;;;;5032347;28;20699;-55
2022/12/30 08:44:21;;;;;;;8.87;5.47;;;10.80;99.90;;;;;;5033176;28;20172;-57
2022/12/30 08:46:46;;;;;;;8.47;7.10;;;11.40;99.90;;;;;;5032282;28;20203;-56
2022/12/30 08:49:13;;;;;;;5.60;4.70;;;12.10;99.90;;;;;;5045950;28;20249;-60
2022/12/30 08:51:39;;;;;;;5.20;4.70;;;12.90;99.90;;;;;;5051333;28;20203;-56
2022/12/30 08:54:05;;;;;;;10.33;8.40;;;13.60;99.90;;;;;;5043010;28;20173;-59
2022/12/30 08:56:32;;;;;;;5.47;4.13;;;14.30;99.90;;;;;;5049598;28;20531;-60
2022/12/30 08:58:58;;;;;;;4.53;3.33;;;14.90;99.90;;;;;;5051023;28;20189;-60
2022/12/30 09:01:30;;;;;;;4.63;3.97;;;15.40;99.90;;;;;;5051224;28;20210;-60
2022/12/30 09:03:57;;;;;;;7.37;6.33;;;15.90;99.90;;;;;;5049096;28;20191;-59
2022/12/30 09:06:24;;;;;;;4.43;3.93;;;16.80;99.90;;;;;;5047226;28;20214;-59
2022/12/30 09:08:51;;;;;;;4.00;3.53;;;18.10;99.90;;;;;;5050981;28;20211;-59
2022/12/30 09:11:23;;;;;;;3.33;3.03;;;19.50;98.30;;;;;;5051330;28;20225;-62
2022/12/30 09:13:50;;;;;;;3.17;2.85;;;20.80;96.40;;;;;;5033865;28;20219;-60
2022/12/30 09:16:19;;;;;;;2.83;2.63;;;22.40;94.00;;;;;;5047674;28;20848;-61
2022/12/30 09:18:45;;;;;;;2.60;2.40;;;24.00;90.90;;;;;;5041974;28;20306;-62
2022/12/30 09:21:10;;;;;;;2.42;2.22;;;25.50;86.70;;;;;;5051218;28;20330;-63
2022/12/30 09:23:36;;;;;;;3.20;2.53;;;26.50;79.10;;;;;;5048990;28;20321;-62
2022/12/30 09:26:03;;;;;;;4.22;2.88;;;26.70;77.10;;;;;;5048664;28;20206;-60
2022/12/30 09:28:29;;;;;;;3.00;2.80;;;26.40;74.70;;;;;;5050228;28;20175;-60
2022/12/30 09:30:54;;;;;;;2.72;2.53;;;25.70;73.40;;;;;;5051800;28;20660;-59
2022/12/30 09:33:20;;;;;;;2.70;2.50;;;24.80;74.40;;;;;;5051541;28;20210;-60
2022/12/30 09:35:45;;;;;;;2.67;2.47;;;24.20;76.60;;;;;;5051749;28;20178;-60
2022/12/30 09:38:11;;;;;;;2.60;2.40;;;24.50;76.80;;;;;;5051634;28;20183;-60
2022/12/30 09:40:57;;;;;;;2.88;2.63;;;25.50;76.40;;;;;;5049497;28;20182;-61
2022/12/30 09:43:33;;;;;;;2.80;2.60;;;27.00;73.30;;;;;;5050789;28;20321;-61
2022/12/30 09:46:07;;;;;;;2.55;2.35;;;28.60;68.20;;;;;;5051515;28;20545;-61
2022/12/30 09:48:47;;;;;;;1.98;1.88;;;30.00;65.70;;;;;;5051824;28;20629;-55
2022/12/30 09:51:22;;;;;;;1.98;1.88;;;31.00;58.20;;;;;;5051216;28;20644;-60
2022/12/30 09:54:02;;;;;;;4.50;2.00;;;31.10;56.50;;;;;;5051127;28;20771;-61
2022/12/30 09:56:37;;;;;;;1.98;1.88;;;31.20;55.60;;;;;;5051590;28;20168;-60
2022/12/30 09:59:28;;;;;;;3.05;2.85;;;31.10;54.60;;;;;;5050551;28;20198;-59
2022/12/30 10:02:04;;;;;;;2.00;1.80;;;30.60;53.10;;;;;;5051482;28;20195;-60
2022/12/30 10:04:36;;;;;;;1.77;1.67;;;30.50;53.70;;;;;;5051290;28;20171;-61
2022/12/30 10:07:07;;;;;;;2.30;2.10;;;30.80;53.50;;;;;;5051143;28;20218;-61
2022/12/30 10:10:12;;;;;;;2.47;1.80;;;30.90;51.70;;;;;;5050625;28;20585;-61
2022/12/30 10:12:43;;;;;;;2.30;2.15;;;30.90;52.00;;;;;;5042768;28;20215;-60
2022/12/30 10:15:23;;;;;;;1.90;1.73;;;30.80;51.60;;;;;;5050704;28;20671;-60
2022/12/30 10:18:15;;;;;;;2.00;1.90;;;31.20;50.10;;;;;;5051216;28;20182;-61
2022/12/30 10:21:18;;;;;;;1.80;1.70;;;30.50;50.70;;;;;;4989892;28;20690;-61
2022/12/30 10:24:07;;;;;;;2.30;2.10;;;30.50;51.60;;;;;;4987947;28;20192;-61
2022/12/30 10:26:45;;;;;;;2.00;1.90;;;31.50;50.40;;;;;;4989429;28;20193;-60
2022/12/30 10:29:36;;;;;;;2.17;2.08;;;32.10;48.60;;;;;;4988030;28;21058;-61
2022/12/30 10:32:30;;;;;;;1.50;1.40;;;32.40;48.50;;;;;;4931155;29;20203;-61
2022/12/30 10:35:08;;;;;;;1.40;1.30;;;33.00;47.40;;;;;;4929112;29;20191;-61
2022/12/30 10:37:35;;;;;;;2.15;1.50;;;33.70;47.20;;;;;;4930689;29;20187;-61
2022/12/30 10:40:08;;;;;;;1.98;1.85;;;34.00;45.80;;;;;;4930331;29;20757;-61
2022/12/30 10:42:46;;;;;;;1.80;1.70;;;34.40;45.60;;;;;;4931174;29;20335;-61
2022/12/30 10:45:23;;;;;;;1.67;1.58;;;35.00;43.90;;;;;;4931062;29;20227;-62
2022/12/30 10:48:13;;;;;;;1.55;1.50;;;35.30;43.60;;;;;;4931574;29;20205;-61
2022/12/30 10:50:43;;;;;;;2.00;1.52;;;35.90;42.10;;;;;;4931318;29;20187;-61
2022/12/30 10:53:15;;;;;;;1.67;1.58;;;36.20;40.40;;;;;;4931503;29;20205;-61
2022/12/30 10:55:47;;;;;;;2.33;1.67;;;36.30;40.20;;;;;;4930880;29;20194;-61
2022/12/30 10:58:40;;;;;;;1.58;1.50;;;36.10;39.20;;;;;;4992823;28;20180;-61
2022/12/30 11:01:14;;;;;;;2.45;1.48;;;35.80;39.60;;;;;;5002697;28;20230;-61
2022/12/30 11:03:47;;;;;;;1.30;1.20;;;35.80;39.70;;;;;;5008418;28;20569;-61
2022/12/30 11:06:19;;;;;;;1.88;1.13;;;35.60;38.90;;;;;;5008372;28;20286;-61
2022/12/30 11:08:44;;;;;;;1.42;1.30;;;35.20;39.80;;;;;;5024437;28;20179;-61
2022/12/30 11:11:10;;;;;;;1.95;1.75;;;35.60;40.20;;;;;;5049748;28;20735;-61
2022/12/30 11:16:25;;;;;;;1.65;1.55;;;36.20;38.60;;;;;;5051111;28;20162;-61
2022/12/30 11:18:51;;;;;;;1.77;1.10;;;36.50;37.70;;;;;;5050519;28;20313;-61
2022/12/30 11:21:42;;;;;;;1.30;1.00;;;35.20;37.50;;;;;;5050298;28;20285;-61
2022/12/30 11:24:15;;;;;;;0.80;0.80;;;34.50;38.80;;;;;;5046961;28;20698;-61
2022/12/30 11:26:46;;;;;;;1.10;1.10;;;34.10;39.10;;;;;;5050523;28;20191;-61
2022/12/30 11:29:17;;;;;;;0.90;0.90;;;34.30;38.50;;;;;;5050335;28;20147;-61
2022/12/30 11:31:47;;;;;;;0.95;0.95;;;34.30;38.70;;;;;;5050614;28;20193;-61
2022/12/30 11:34:36;;;;;;;0.90;0.90;;;33.90;38.50;;;;;;5050095;28;20166;-61
2022/12/30 11:37:23;;;;;;;1.20;1.20;;;33.70;38.70;;;;;;5050574;28;20202;-61
2022/12/30 11:39:49;;;;;;;2.53;1.75;;;33.30;39.10;;;;;;5050123;28;20175;-61
2022/12/30 11:42:44;;;;;;;1.75;1.65;;;33.30;39.00;;;;;;5050301;28;20342;-61
2022/12/30 11:45:19;;;;;;;1.55;1.45;;;33.40;38.90;;;;;;4988210;28;20548;-61
2022/12/30 11:47:46;;;;;;;1.30;1.20;;;33.50;38.30;;;;;;4989916;28;20283;-60
2022/12/30 11:50:19;;;;;;;35.80;30.38;;;32.60;38.70;;;;;;4975904;28;20189;-61
2022/12/30 11:52:51;;;;;;;2.42;2.22;;;31.80;39.90;;;;;;4992511;28;20263;-61
2022/12/30 11:55:23;;;;;;;1.30;1.20;;;31.50;40.80;;;;;;4990841;28;20178;-61
2022/12/30 11:57:50;;;;;;;1.40;1.27;;;30.90;41.20;;;;;;4992475;28;20523;-60
2022/12/30 12:00:16;;;;;;;1.90;1.48;;;30.70;42.30;;;;;;4992087;28;20650;-61
2022/12/30 12:02:49;;;;;;;1.50;1.40;;;30.80;41.30;;;;;;4991956;28;20251;-60
2022/12/30 12:05:20;;;;;;;1.65;1.00;;;30.50;41.20;;;;;;4975591;28;20263;-60
2022/12/30 12:07:47;;;;;;;1.85;1.50;;;29.80;43.00;;;;;;4991867;28;20281;-61
2022/12/30 12:10:34;;;;;;;1.40;1.30;;;29.40;42.40;;;;;;4991256;28;20169;-60
2022/12/30 12:13:16;;;;;;;1.42;1.33;;;28.90;44.30;;;;;;4989196;28;20227;-59
2022/12/30 12:15:51;;;;;;;1.40;1.30;;;29.10;43.60;;;;;;4970410;28;20182;-60
2022/12/30 12:18:54;;;;;;;1.48;1.27;;;28.70;44.00;;;;;;4970389;28;20186;-60
2022/12/30 12:21:26;;;;;;;3.53;1.33;;;28.40;44.00;;;;;;4918400;29;20237;-60
2022/12/30 12:24:06;;;;;;;1.70;1.40;;;27.90;45.20;;;;;;4952609;29;20252;-60
2022/12/30 12:26:41;;;;;;;2.63;1.30;;;27.40;45.10;;;;;;4953182;29;20265;-58
2022/12/30 12:29:14;;;;;;;1.52;1.30;;;27.10;46.90;;;;;;4952974;29;20720;-60
2022/12/30 12:32:01;;;;;;;1.73;1.40;;;27.30;46.30;;;;;;4953005;29;20205;-59
2022/12/30 12:34:36;;;;;;;1.63;1.52;;;27.30;46.00;;;;;;4952461;29;20289;-60
2022/12/30 12:37:23;;;;;;;4.50;1.40;;;27.00;46.00;;;;;;4953104;29;20195;-60
2022/12/30 12:40:07;;;;;;;1.42;1.13;;;26.80;46.90;;;;;;4952826;29;20183;-59
2022/12/30 12:42:45;;;;;;;1.85;1.20;;;26.70;46.30;;;;;;4952872;29;20660;-59
2022/12/30 12:45:37;;;;;;;1.63;1.15;;;26.40;46.40;;;;;;4952748;29;20846;-59
2022/12/30 12:48:08;;;;;;;1.27;1.17;;;26.10;47.10;;;;;;4952875;29;20197;-60
2022/12/30 12:50:42;;;;;;;1.08;1.08;;;25.90;47.10;;;;;;4952538;29;20187;-59
2022/12/30 12:53:35;;;;;;;1.42;1.20;;;25.60;47.50;;;;;;4952618;29;20190;-59
2022/12/30 12:56:39;;;;;;;1.88;1.30;;;24.90;48.50;;;;;;4965709;28;20183;-59
2022/12/30 12:59:29;;;;;;;1.63;1.23;;;24.90;48.80;;;;;;5031875;28;20180;-60
2022/12/30 13:02:49;;;;;;;3.30;1.77;;;25.10;48.80;;;;;;5032858;28;20203;-59
2022/12/30 13:05:32;;;;;;;2.47;1.40;;;24.80;48.30;;;;;;5029937;28;20176;-59
2022/12/30 13:08:19;;;;;;;1.85;1.20;;;24.20;49.30;;;;;;5030563;28;20255;-60
2022/12/30 13:11:08;;;;;;;1.17;1.08;;;24.00;49.60;;;;;;5030265;28;20298;-59
2022/12/30 13:13:55;;;;;;;1.17;1.05;;;24.30;49.70;;;;;;5030137;28;20180;-55
2022/12/30 13:16:27;;;;;;;1.90;1.30;;;24.40;49.10;;;;;;5030198;28;20175;-59
2022/12/30 13:18:55;;;;;;;2.17;1.20;;;24.30;49.50;;;;;;5030327;28;20638;-60
2022/12/30 13:21:25;;;;;;;1.27;1.00;;;24.20;49.40;;;;;;5029826;28;20216;-60
2022/12/30 13:23:57;;;;;;;2.92;1.42;;;24.30;49.60;;;;;;5029765;28;20173;-60
2022/12/30 13:26:25;;;;;;;2.15;1.15;;;24.30;49.50;;;;;;5030069;28;20215;-60
2022/12/30 13:28:56;;;;;;;1.23;1.10;;;24.00;49.60;;;;;;5029880;28;20200;-60
2022/12/30 13:31:42;;;;;;;1.65;1.10;;;23.80;49.70;;;;;;5029836;28;20723;-60
2022/12/30 13:34:44;;;;;;;1.17;1.08;;;23.40;50.40;;;;;;5029342;28;20210;-60
2022/12/30 13:37:24;;;;;;;1.50;0.93;;;23.10;51.40;;;;;;5029714;28;20160;-61
2022/12/30 13:39:54;;;;;;;1.63;1.10;;;23.10;51.50;;;;;;5031992;28;20219;-61
2022/12/30 13:42:38;;;;;;;0.85;0.80;;;23.00;51.20;;;;;;5031986;28;20187;-61
2022/12/30 13:45:25;;;;;;;1.63;1.27;;;22.90;51.70;;;;;;5031872;28;20156;-61
2022/12/30 13:48:09;;;;;;;1.83;0.95;;;23.00;51.80;;;;;;5031884;28;20569;-61
2022/12/30 13:50:36;;;;;;;3.05;1.00;;;23.10;51.30;;;;;;5032062;28;20621;-61
2022/12/30 13:53:05;;;;;;;1.65;1.13;;;23.40;51.70;;;;;;5031668;28;20569;-61
2022/12/30 13:55:35;;;;;;;3.55;1.17;;;23.30;51.40;;;;;;5031475;28;20168;-61
2022/12/30 13:58:16;;;;;;;2.03;1.55;;;23.20;51.70;;;;;;5031814;28;20230;-61
2022/12/30 14:00:43;;;;;;;1.52;1.42;;;23.20;51.50;;;;;;5031840;28;20240;-61
2022/12/30 14:03:11;;;;;;;1.50;0.90;;;23.20;52.00;;;;;;5030910;28;20199;-60